Time;durP1;ratioP1;P1;durP2;ratioP2;P2;SDS_P1;SDS_P2;PMS_P1;PMS_P2;Temp;Humidity;BMP_temperature;BMP_pressure;BME280_temperature;BME280_humidity;BME280_pressure;Samples;Min_cycle;Max_cycle;Signal;HPM_P1;HPM_P2
2023/06/27 00:02:20;;;;;;;3.92;1.40;;;;;;;16.33;78.46;101759.75;5010999;28;20040;-75
2023/06/27 00:04:46;;;;;;;2.28;1.42;;;;;;;16.30;78.35;101759.28;5025028;28;20041;-75
2023/06/27 00:07:12;;;;;;;6.50;1.70;;;;;;;16.30;78.07;101760.09;5008585;28;20404;-75
2023/06/27 00:09:38;;;;;;;2.28;1.40;;;;;;;16.34;77.20;101766.59;5007527;28;20044;-75
2023/06/27 00:12:05;;;;;;;3.58;1.80;;;;;;;16.33;76.77;101764.16;5013587;28;20076;-74
2023/06/27 00:14:33;;;;;;;3.55;1.30;;;;;;;16.36;76.60;101766.44;5010279;28;20103;-75
2023/06/27 00:17:00;;;;;;;6.22;1.45;;;;;;;16.38;76.12;101769.69;5006241;28;20535;-74
2023/06/27 00:19:25;;;;;;;2.92;1.58;;;;;;;16.41;76.04;101768.56;5007184;28;20382;-74
2023/06/27 00:21:51;;;;;;;3.22;1.40;;;;;;;16.44;75.76;101766.38;5010644;28;20041;-75
2023/06/27 00:24:17;;;;;;;4.32;1.50;;;;;;;16.46;75.41;101756.59;5008258;28;20048;-75
2023/06/27 00:26:42;;;;;;;3.45;1.60;;;;;;;16.51;75.65;101762.09;5002790;28;20180;-75
2023/06/27 00:29:08;;;;;;;2.90;1.85;;;;;;;16.50;75.86;101763.09;5003225;28;20220;-75
2023/06/27 00:31:33;;;;;;;5.68;1.60;;;;;;;16.50;76.21;101765.72;5011607;28;20065;-74
2023/06/27 00:33:59;;;;;;;1.88;1.30;;;;;;;16.51;76.20;101762.09;5011244;28;20397;-75
2023/06/27 00:36:24;;;;;;;3.40;1.48;;;;;;;16.51;76.56;101767.34;5008700;28;20038;-75
2023/06/27 00:38:50;;;;;;;3.75;1.83;;;;;;;16.48;76.91;101764.25;4992148;28;20766;-75
2023/06/27 00:41:15;;;;;;;2.90;1.50;;;;;;;16.46;76.68;101764.44;5006934;28;20022;-75
2023/06/27 00:43:41;;;;;;;5.10;2.05;;;;;;;16.46;76.36;101763.59;5004850;28;20057;-75
2023/06/27 00:46:08;;;;;;;3.67;1.50;;;;;;;16.44;76.46;101757.72;5008246;28;20034;-75
2023/06/27 00:48:34;;;;;;;2.67;1.08;;;;;;;16.39;76.54;101760.88;5005378;28;20054;-74
2023/06/27 00:51:01;;;;;;;3.90;1.35;;;;;;;16.36;76.43;101761.19;5005956;28;20097;-75
2023/06/27 00:53:28;;;;;;;2.22;1.20;;;;;;;16.30;76.40;101762.69;5008882;28;20573;-75
2023/06/27 00:55:54;;;;;;;3.20;1.50;;;;;;;16.27;76.60;101755.19;5008538;28;20033;-75
2023/06/27 00:58:20;;;;;;;3.60;1.40;;;;;;;16.26;76.17;101764.03;5010877;28;20092;-75
2023/06/27 01:00:47;;;;;;;3.65;1.45;;;;;;;16.29;76.02;101757.63;5011225;28;20128;-75
2023/06/27 01:03:13;;;;;;;4.28;1.50;;;;;;;16.29;76.05;101755.00;5009416;28;20116;-75
2023/06/27 01:05:40;;;;;;;2.20;1.30;;;;;;;16.29;75.81;101750.63;5011197;28;20040;-74
2023/06/27 01:08:29;;;;;;;2.95;1.40;;;;;;;16.26;76.58;101756.19;5006784;28;20022;-74
2023/06/27 01:11:24;;;;;;;3.63;1.60;;;;;;;16.26;76.94;101753.56;5011417;28;21286;-75
2023/06/27 01:13:55;;;;;;;2.50;1.40;;;;;;;16.26;76.65;101748.34;5012117;28;20061;-75
2023/06/27 01:16:28;;;;;;;3.67;1.75;;;;;;;16.24;76.40;101746.88;4995972;28;20129;-74
2023/06/27 01:18:56;;;;;;;2.65;1.40;;;;;;;16.24;76.83;101745.06;5007481;28;20049;-75
2023/06/27 01:21:25;;;;;;;3.72;1.83;;;;;;;16.22;77.04;101756.69;5014143;28;20033;-75
2023/06/27 01:23:55;;;;;;;2.95;1.55;;;;;;;16.20;77.32;101746.41;5002559;28;20072;-75
2023/06/27 01:26:22;;;;;;;2.58;1.60;;;;;;;16.17;77.86;101743.31;5006831;28;20041;-74
2023/06/27 01:28:47;;;;;;;4.70;1.40;;;;;;;16.14;77.72;101749.69;5007552;28;20048;-75
2023/06/27 01:31:24;;;;;;;4.85;1.90;;;;;;;16.13;77.63;101746.25;5010629;28;20037;-75
2023/06/27 01:33:56;;;;;;;4.88;1.42;;;;;;;16.11;77.63;101748.22;5012809;28;20033;-75
2023/06/27 01:37:01;;;;;;;6.47;2.00;;;;;;;16.12;77.67;101746.41;4996699;28;20034;-75
2023/06/27 01:39:32;;;;;;;2.65;1.42;;;;;;;16.12;77.74;101749.03;5004441;28;20595;-75
2023/06/27 01:42:14;;;;;;;3.88;1.67;;;;;;;16.08;77.51;101732.84;5006683;28;20037;-75
2023/06/27 01:44:42;;;;;;;3.38;1.50;;;;;;;16.08;77.29;101740.69;5008831;28;20581;-74
2023/06/27 01:47:09;;;;;;;4.00;1.80;;;;;;;16.10;77.35;101737.94;5011732;28;20022;-75
2023/06/27 01:49:34;;;;;;;5.78;1.92;;;;;;;16.11;77.51;101743.00;5004556;28;20452;-74
2023/06/27 01:52:00;;;;;;;3.53;1.50;;;;;;;16.11;78.14;101744.81;5009024;28;20036;-75
2023/06/27 01:54:26;;;;;;;3.55;1.80;;;;;;;16.12;78.47;101738.56;4991248;28;20125;-75
2023/06/27 01:56:52;;;;;;;4.70;1.70;;;;;;;16.11;78.66;101737.75;4993547;28;20037;-75
2023/06/27 01:59:17;;;;;;;3.47;1.75;;;;;;;16.06;78.57;101740.06;5005376;28;20054;-75
2023/06/27 02:01:42;;;;;;;4.65;1.40;;;;;;;16.05;78.61;101740.22;5007897;28;20033;-75
2023/06/27 02:04:08;;;;;;;4.38;1.80;;;;;;;16.03;78.99;101743.03;5009662;28;20053;-75
2023/06/27 02:06:34;;;;;;;4.60;2.05;;;;;;;16.02;79.05;101737.97;5007896;28;20033;-74
2023/06/27 02:08:59;;;;;;;3.60;1.70;;;;;;;16.00;79.44;101742.56;5011875;28;20045;-75
2023/06/27 02:11:24;;;;;;;7.15;1.67;;;;;;;16.00;79.29;101737.31;5012514;28;20033;-75
2023/06/27 02:13:50;;;;;;;4.50;1.50;;;;;;;15.95;79.48;101738.66;5022102;28;20425;-75
2023/06/27 02:16:16;;;;;;;7.30;1.77;;;;;;;15.93;79.49;101735.34;5007798;28;20034;-75
2023/06/27 02:18:42;;;;;;;3.05;1.48;;;;;;;15.92;79.49;101732.94;5009307;28;20033;-75
2023/06/27 02:21:07;;;;;;;6.05;1.73;;;;;;;15.93;79.42;101730.13;5008497;28;20037;-75
2023/06/27 02:23:33;;;;;;;3.92;1.77;;;;;;;15.93;79.05;101730.13;4993120;28;20045;-75
2023/06/27 02:25:58;;;;;;;3.95;1.70;;;;;;;15.94;79.11;101733.59;5022231;28;20029;-73
2023/06/27 02:28:24;;;;;;;6.32;1.88;;;;;;;15.85;79.60;101731.97;4996542;28;20029;-74
2023/06/27 02:30:49;;;;;;;8.75;2.10;;;;;;;15.88;79.38;101727.22;5008913;28;20027;-74
2023/06/27 02:33:15;;;;;;;6.32;2.65;;;;;;;15.82;79.01;101721.84;5007767;28;20030;-74
2023/06/27 02:35:40;;;;;;;3.97;1.85;;;;;;;15.80;79.04;101726.41;4983429;28;20042;-72
2023/06/27 02:38:05;;;;;;;4.47;1.90;;;;;;;15.79;78.73;101722.19;5008002;28;20026;-75
2023/06/27 02:40:31;;;;;;;4.07;2.00;;;;;;;15.73;79.27;101716.66;4992219;28;20050;-74
2023/06/27 02:42:57;;;;;;;5.20;1.92;;;;;;;15.71;79.26;101723.81;5009558;28;20025;-75
2023/06/27 02:45:23;;;;;;;5.75;2.40;;;;;;;15.69;79.16;101728.38;5017508;28;20046;-75
2023/06/27 02:47:49;;;;;;;7.90;2.08;;;;;;;15.69;79.23;101731.00;4990475;28;20026;-74
2023/06/27 02:50:14;;;;;;;6.20;2.75;;;;;;;15.69;79.38;101728.38;5004036;28;20049;-75
2023/06/27 02:52:40;;;;;;;4.70;1.70;;;;;;;15.72;79.07;101737.69;5009383;28;20049;-75
2023/06/27 02:55:06;;;;;;;6.65;2.45;;;;;;;15.72;79.15;101733.28;4984919;28;20041;-74
2023/06/27 02:57:32;;;;;;;7.93;2.10;;;;;;;15.74;78.90;101741.78;5011403;28;20057;-75
2023/06/27 02:59:59;;;;;;;5.70;1.85;;;;;;;15.74;79.12;101735.75;4988757;28;20033;-75
2023/06/27 03:02:25;;;;;;;6.55;2.03;;;;;;;15.73;79.44;101737.56;5001165;28;20034;-75
2023/06/27 03:04:50;;;;;;;5.93;1.92;;;;;;;15.76;79.10;101737.22;5005338;28;20731;-75
2023/06/27 03:07:16;;;;;;;9.20;2.30;;;;;;;15.70;79.61;101735.25;5005916;28;20041;-74
2023/06/27 03:09:42;;;;;;;10.95;2.08;;;;;;;15.73;79.78;101740.19;4991214;28;20038;-74
2023/06/27 03:12:08;;;;;;;10.18;2.42;;;;;;;15.74;79.23;101728.72;5003973;28;20041;-75
2023/06/27 03:14:34;;;;;;;7.40;2.05;;;;;;;15.71;79.78;101730.84;4989180;28;20107;-74
2023/06/27 03:16:59;;;;;;;6.30;1.88;;;;;;;15.70;80.20;101731.81;5007532;28;20049;-74
2023/06/27 03:19:25;;;;;;;2.97;1.52;;;;;;;15.65;80.47;101734.94;5007087;28;20037;-75
2023/06/27 03:21:50;;;;;;;6.07;1.85;;;;;;;15.61;80.48;101736.22;4990892;28;20026;-75
2023/06/27 03:24:16;;;;;;;7.85;2.10;;;;;;;15.63;80.53;101742.09;5008946;28;20048;-75
2023/06/27 03:26:45;;;;;;;3.95;1.80;;;;;;;15.64;80.54;101741.13;5006939;28;20036;-75
2023/06/27 03:29:11;;;;;;;8.60;2.05;;;;;;;15.63;80.42;101736.88;4989182;28;20038;-74
2023/06/27 03:31:37;;;;;;;8.20;2.33;;;;;;;15.62;80.56;101726.63;5007630;28;20072;-74
2023/06/27 03:34:03;;;;;;;7.68;1.90;;;;;;;15.61;80.96;101731.00;5003491;28;20039;-75
2023/06/27 03:36:33;;;;;;;5.95;2.05;;;;;;;15.59;80.72;101735.59;4993587;28;20082;-74
2023/06/27 03:38:58;;;;;;;9.50;1.90;;;;;;;15.61;81.12;101732.81;5007664;28;20096;-75
2023/06/27 03:41:24;;;;;;;7.07;2.22;;;;;;;15.61;80.95;101738.84;5012480;28;20423;-77
2023/06/27 03:43:49;;;;;;;4.07;1.98;;;;;;;15.64;81.07;101746.38;5007791;28;20057;-77
2023/06/27 03:46:17;;;;;;;6.40;1.83;;;;;;;15.75;80.95;101746.06;4999127;28;20176;-77
2023/06/27 03:48:43;;;;;;;5.95;2.28;;;;;;;15.70;81.28;101735.25;5009909;28;20056;-75
2023/06/27 03:51:09;;;;;;;12.20;2.50;;;;;;;15.70;81.32;101735.25;4994526;28;20443;-75
2023/06/27 03:53:35;;;;;;;5.82;2.30;;;;;;;15.63;81.63;101730.84;4988234;28;20057;-74
2023/06/27 03:56:02;;;;;;;8.23;2.15;;;;;;;15.63;81.82;101733.47;5007751;28;20042;-75
2023/06/27 03:58:29;;;;;;;4.85;2.20;;;;;;;15.63;81.74;101730.84;5006931;28;20048;-75
2023/06/27 04:00:54;;;;;;;5.85;1.77;;;;;;;15.65;81.71;101734.09;5008542;28;20046;-75
2023/06/27 04:03:20;;;;;;;4.57;1.75;;;;;;;15.66;81.69;101738.38;5011390;28;20036;-74
2023/06/27 04:05:47;;;;;;;6.22;2.17;;;;;;;15.69;81.97;101740.63;5015590;28;20070;-74
2023/06/27 04:08:12;;;;;;;8.73;2.67;;;;;;;15.76;81.36;101733.78;5005187;28;20032;-74
2023/06/27 04:10:42;;;;;;;10.88;2.65;;;;;;;15.71;81.83;101738.69;5014885;28;20033;-74
2023/06/27 04:13:08;;;;;;;6.07;2.20;;;;;;;15.72;82.36;101738.50;4992247;28;20084;-75
2023/06/27 04:15:39;;;;;;;6.32;2.17;;;;;;;15.73;82.61;101737.56;5006676;28;20037;-75
2023/06/27 04:18:06;;;;;;;6.77;2.33;;;;;;;15.68;83.01;101739.81;4994419;28;20034;-74
2023/06/27 04:20:32;;;;;;;7.53;2.10;;;;;;;15.69;82.88;101738.84;5008577;28;20419;-75
2023/06/27 04:22:58;;;;;;;18.65;3.83;;;;;;;15.72;82.73;101742.91;4993011;28;20049;-75
2023/06/27 04:25:29;;;;;;;10.88;2.58;;;;;;;15.71;82.90;101738.69;5012254;28;20112;-75
2023/06/27 04:27:55;;;;;;;12.73;2.25;;;;;;;15.71;83.29;101741.31;5013823;28;20030;-75
2023/06/27 04:30:20;;;;;;;9.63;2.65;;;;;;;15.77;82.73;101736.25;5013769;28;20056;-74
2023/06/27 04:32:48;;;;;;;13.30;2.75;;;;;;;15.82;82.63;101748.00;5014345;28;20034;-73
2023/06/27 04:35:15;;;;;;;10.05;3.08;;;;;;;15.78;83.11;101742.28;5013219;28;20114;-74
2023/06/27 04:37:41;;;;;;;6.65;1.90;;;;;;;15.71;83.82;101738.69;5015618;28;20489;-75
2023/06/27 04:40:08;;;;;;;7.55;2.88;;;;;;;15.77;83.59;101744.09;5008717;28;20038;-74
2023/06/27 04:42:33;;;;;;;11.20;2.45;;;;;;;15.65;84.09;101748.00;5008995;28;20504;-75
2023/06/27 04:44:59;;;;;;;7.53;2.70;;;;;;;15.67;84.31;101745.22;5000057;28;20099;-75
2023/06/27 04:47:24;;;;;;;7.55;2.25;;;;;;;15.63;84.77;101749.94;5009411;28;20079;-74
2023/06/27 04:49:50;;;;;;;10.82;2.83;;;;;;;15.65;84.73;101739.34;5010824;28;20518;-76
2023/06/27 04:52:15;;;;;;;8.27;2.92;;;;;;;15.65;85.22;101742.78;5013826;28;20034;-74
2023/06/27 04:54:40;;;;;;;10.88;2.70;;;;;;;15.68;85.03;101749.47;5008253;28;20042;-74
2023/06/27 04:57:06;;;;;;;9.18;3.05;;;;;;;15.77;84.86;101741.47;5012471;28;20048;-75
2023/06/27 04:59:31;;;;;;;8.05;2.53;;;;;;;15.68;85.01;101737.19;5007268;28;20042;-73
2023/06/27 05:01:57;;;;;;;10.15;2.65;;;;;;;15.74;85.28;101731.31;4993398;28;20029;-76
2023/06/27 05:04:22;;;;;;;8.27;1.83;;;;;;;15.70;85.30;101732.63;5008838;28;20053;-74
2023/06/27 05:06:48;;;;;;;8.20;2.60;;;;;;;15.71;85.33;101739.50;5016226;28;20393;-76
2023/06/27 05:09:13;;;;;;;10.23;3.05;;;;;;;15.63;85.74;101734.25;4995590;28;20050;-76
2023/06/27 05:11:39;;;;;;;7.13;2.13;;;;;;;15.65;86.09;101729.72;5015920;28;20062;-75
2023/06/27 05:14:04;;;;;;;6.88;2.58;;;;;;;15.67;85.89;101739.97;5008260;28;20590;-75
2023/06/27 05:16:30;;;;;;;11.30;2.83;;;;;;;15.71;85.54;101741.31;5009686;28;20037;-75
2023/06/27 05:18:55;;;;;;;9.57;3.08;;;;;;;15.76;85.18;101739.00;5011963;28;20053;-75
2023/06/27 05:21:21;;;;;;;15.45;3.15;;;;;;;15.74;85.87;101746.22;4991692;28;20041;-76
2023/06/27 05:23:46;;;;;;;10.43;3.22;;;;;;;15.73;86.22;101748.00;5010979;28;20070;-76
2023/06/27 05:26:12;;;;;;;8.30;2.80;;;;;;;15.86;86.07;101749.28;4997811;28;20873;-75
2023/06/27 05:28:39;;;;;;;14.60;3.15;;;;;;;15.99;85.24;101746.94;5010834;28;20129;-76
2023/06/27 05:31:04;;;;;;;11.15;2.42;;;;;;;16.18;84.29;101739.69;5009398;28;20042;-75
2023/06/27 05:33:30;;;;;;;7.80;2.78;;;;;;;16.14;84.13;101747.06;4996757;28;20049;-75
2023/06/27 05:35:55;;;;;;;10.93;2.90;;;;;;;16.28;83.62;101745.56;5004275;28;20081;-75
2023/06/27 05:38:21;;;;;;;13.27;3.20;;;;;;;16.42;82.99;101747.41;5012603;28;20071;-74
2023/06/27 05:40:46;;;;;;;7.72;2.42;;;;;;;16.59;82.43;101744.72;5008897;28;20057;-75
2023/06/27 05:43:12;;;;;;;11.13;2.78;;;;;;;16.76;82.13;101740.19;4996444;28;20030;-77
2023/06/27 05:45:37;;;;;;;15.88;2.70;;;;;;;16.86;80.81;101738.22;5008214;28;20041;-74
2023/06/27 05:48:03;;;;;;;14.90;2.90;;;;;;;16.97;80.80;101739.59;5008422;28;20026;-75
2023/06/27 05:50:28;;;;;;;11.27;2.70;;;;;;;17.12;80.06;101737.81;5005233;28;20628;-76
2023/06/27 05:52:54;;;;;;;8.65;2.28;;;;;;;17.41;79.91;101731.03;4997094;28;20457;-75
2023/06/27 05:55:19;;;;;;;11.32;2.97;;;;;;;17.60;78.71;101734.94;5007687;28;20045;-75
2023/06/27 05:57:45;;;;;;;12.38;3.20;;;;;;;17.69;77.52;101732.06;5012230;28;20084;-76
2023/06/27 06:00:11;;;;;;;12.60;3.13;;;;;;;17.84;77.31;101733.88;5014156;28;20037;-73
2023/06/27 06:02:42;;;;;;;13.57;2.65;;;;;;;18.05;75.99;101738.41;5010276;28;20129;-74
2023/06/27 06:05:10;;;;;;;16.38;3.22;;;;;;;18.21;76.13;101740.81;5008302;28;20056;-76
2023/06/27 06:07:39;;;;;;;9.00;2.58;;;;;;;18.36;75.87;101732.91;5011114;28;20401;-76
2023/06/27 06:10:06;;;;;;;21.67;4.13;;;;;;;18.40;74.67;101728.09;5010972;28;20096;-75
2023/06/27 06:12:31;;;;;;;10.32;2.50;;;;;;;18.56;74.61;101733.13;4987964;28;20066;-75
2023/06/27 06:14:57;;;;;;;15.55;3.75;;;;;;;18.72;74.09;101732.06;5010587;28;20053;-75
2023/06/27 06:17:22;;;;;;;8.05;2.88;;;;;;;18.92;73.22;101731.50;5008102;28;20029;-74
2023/06/27 06:19:48;;;;;;;12.27;2.70;;;;;;;19.03;72.60;101726.53;4980832;28;20133;-76
2023/06/27 06:22:15;;;;;;;9.23;2.55;;;;;;;19.19;72.83;101728.09;5010332;28;20053;-77
2023/06/27 06:24:41;;;;;;;9.48;2.42;;;;;;;19.51;72.46;101730.31;4997271;28;20030;-74
2023/06/27 06:27:07;;;;;;;11.27;3.00;;;;;;;19.75;70.69;101721.97;5012817;28;20113;-76
2023/06/27 06:29:32;;;;;;;11.55;2.28;;;;;;;19.98;70.62;101720.88;5015982;28;20496;-76
2023/06/27 06:31:58;;;;;;;17.95;2.88;;;;;;;20.19;69.40;101722.56;5002281;28;20045;-77
2023/06/27 06:34:23;;;;;;;11.50;2.67;;;;;;;20.37;69.14;101724.66;4995165;28;20045;-76
2023/06/27 06:36:51;;;;;;;21.58;6.68;;;;;;;20.44;68.33;101717.59;5005526;28;20025;-74
2023/06/27 06:39:17;;;;;;;12.93;3.75;;;;;;;20.51;67.54;101712.31;4991310;28;20480;-76
2023/06/27 06:41:43;;;;;;;10.93;2.38;;;;;;;20.77;67.45;101714.22;4993113;28;20041;-76
2023/06/27 06:44:10;;;;;;;13.88;3.28;;;;;;;20.90;65.86;101722.13;5006269;28;20065;-76
2023/06/27 06:46:37;;;;;;;11.05;2.65;;;;;;;21.08;65.62;101720.72;5005670;28;20484;-76
2023/06/27 06:49:03;;;;;;;12.30;2.53;;;;;;;21.16;64.49;101721.31;5006719;28;20038;-74
2023/06/27 06:51:29;;;;;;;13.10;3.05;;;;;;;21.50;64.38;101724.75;5006857;28;20029;-76
2023/06/27 06:53:55;;;;;;;8.73;2.35;;;;;;;21.79;62.75;101722.63;4991645;28;20037;-75
2023/06/27 06:56:20;;;;;;;8.02;2.33;;;;;;;22.04;62.44;101728.03;4993589;28;20040;-75
2023/06/27 06:58:46;;;;;;;15.20;2.92;;;;;;;22.19;61.68;101719.84;5010161;28;20037;-76
2023/06/27 07:01:12;;;;;;;11.70;2.78;;;;;;;22.35;60.41;101729.13;5010628;28;20683;-75
2023/06/27 07:03:37;;;;;;;13.68;3.42;;;;;;;22.53;60.20;101725.78;5010103;28;20034;-73
2023/06/27 07:06:03;;;;;;;12.27;3.20;;;;;;;22.93;59.92;101730.78;4992690;28;20037;-76
2023/06/27 07:08:28;;;;;;;11.88;2.78;;;;;;;23.12;58.94;101731.66;5011325;28;20048;-75
2023/06/27 07:10:54;;;;;;;21.60;3.53;;;;;;;23.48;57.65;101722.16;4991143;28;20030;-76
2023/06/27 07:13:19;;;;;;;19.13;2.60;;;;;;;23.14;58.19;101732.25;4993213;28;20046;-76
2023/06/27 07:15:44;;;;;;;10.48;2.72;;;;;;;23.43;56.88;101730.75;4991822;28;20092;-75
2023/06/27 07:18:10;;;;;;;10.50;2.38;;;;;;;23.84;55.76;101737.25;5007080;28;20080;-76
2023/06/27 07:20:35;;;;;;;12.85;2.63;;;;;;;23.51;56.70;101733.13;5009613;28;20034;-73
2023/06/27 07:23:01;;;;;;;8.48;2.35;;;;;;;23.74;56.19;101739.59;5011830;28;20040;-76
2023/06/27 07:25:28;;;;;;;11.60;2.42;;;;;;;24.04;56.26;101728.25;5013173;28;20042;-77
2023/06/27 07:27:54;;;;;;;19.73;2.72;;;;;;;24.23;55.65;101734.31;5010961;28;20096;-75
2023/06/27 07:30:19;;;;;;;9.70;2.80;;;;;;;24.19;54.94;101726.03;5012309;28;20069;-74
2023/06/27 07:32:45;;;;;;;8.23;2.78;;;;;;;24.67;54.48;101719.81;5012565;28;20120;-75
2023/06/27 07:35:10;;;;;;;9.27;2.50;;;;;;;24.73;53.48;101725.25;5015007;28;20041;-75
2023/06/27 07:37:37;;;;;;;12.57;2.90;;;;;;;25.02;52.74;101726.22;5014908;28;20083;-75
2023/06/27 07:40:03;;;;;;;12.40;2.95;;;;;;;24.78;53.19;101726.19;5014923;28;20455;-74
2023/06/27 07:42:28;;;;;;;10.10;2.95;;;;;;;24.92;53.27;101729.47;5012003;28;20038;-77
2023/06/27 07:44:53;;;;;;;11.60;2.78;;;;;;;25.12;51.68;101728.31;5028652;28;20044;-76
2023/06/27 07:47:19;;;;;;;14.73;2.40;;;;;;;25.38;52.00;101719.09;5013821;28;20096;-74
2023/06/27 07:49:45;;;;;;;19.33;3.47;;;;;;;25.62;51.05;101719.84;5009184;28;20048;-76
2023/06/27 07:52:11;;;;;;;12.68;2.95;;;;;;;25.79;50.75;101718.06;5017605;28;20029;-77
2023/06/27 07:54:36;;;;;;;13.40;2.60;;;;;;;25.93;50.97;101715.97;4997655;28;20279;-76
2023/06/27 07:57:03;;;;;;;9.77;3.03;;;;;;;25.98;49.27;101710.75;4998500;28;20033;-76
2023/06/27 07:59:28;;;;;;;8.63;2.72;;;;;;;25.94;49.02;101714.13;5006943;28;20057;-77
2023/06/27 08:01:54;;;;;;;8.10;2.33;;;;;;;26.29;48.04;101707.84;5014081;28;20034;-76
2023/06/27 08:04:20;;;;;;;12.48;2.55;;;;;;;26.71;46.86;101710.97;4991823;28;20034;-76
2023/06/27 08:06:45;;;;;;;9.98;2.15;;;;;;;26.89;47.18;101701.91;5012167;28;20448;-78
2023/06/27 08:09:11;;;;;;;9.85;2.50;;;;;;;26.53;48.37;101708.50;5009859;28;20050;-77
2023/06/27 08:11:36;;;;;;;8.82;2.65;;;;;;;26.21;47.65;101715.16;5011083;28;20037;-76
2023/06/27 08:14:02;;;;;;;14.63;3.38;;;;;;;25.87;48.75;101708.91;5009401;28;20034;-76
2023/06/27 08:16:27;;;;;;;8.38;2.35;;;;;;;26.20;48.19;101707.41;5016343;28;20591;-76
2023/06/27 08:18:53;;;;;;;10.80;2.50;;;;;;;26.45;48.25;101704.41;4996184;28;20050;-77
2023/06/27 08:21:19;;;;;;;9.20;2.58;;;;;;;26.23;47.49;101713.06;4992168;28;20038;-77
2023/06/27 08:23:44;;;;;;;10.00;2.00;;;;;;;26.53;46.95;101711.97;4991770;28;20103;-76
2023/06/27 08:26:16;;;;;;;11.95;2.60;;;;;;;26.82;45.82;101700.47;5011017;28;20151;-74
2023/06/27 08:28:43;;;;;;;9.90;2.53;;;;;;;25.95;46.10;101703.25;4992231;28;20034;-78
2023/06/27 08:31:10;;;;;;;7.30;2.20;;;;;;;25.61;48.76;101704.97;5009337;28;20040;-77
2023/06/27 08:33:36;;;;;;;9.35;2.00;;;;;;;25.89;48.03;101700.72;5009861;28;20101;-75
2023/06/27 08:36:01;;;;;;;9.35;2.90;;;;;;;25.95;47.56;101699.78;5016300;28;20030;-78
2023/06/27 08:38:27;;;;;;;8.05;2.22;;;;;;;26.46;48.35;101694.56;4993330;28;20653;-76
2023/06/27 08:40:54;;;;;;;11.45;2.25;;;;;;;26.47;45.47;101689.00;5013273;28;20041;-77
2023/06/27 08:43:20;;;;;;;6.68;2.03;;;;;;;26.26;45.40;101689.69;4991092;28;20034;-75
2023/06/27 08:45:47;;;;;;;9.40;1.95;;;;;;;25.64;46.60;101699.19;5008391;28;20037;-75
2023/06/27 08:48:15;;;;;;;10.93;2.22;;;;;;;25.11;47.58;101695.66;5007411;28;20034;-77
2023/06/27 08:50:41;;;;;;;8.60;2.08;;;;;;;25.06;49.90;101690.25;5011837;28;20571;-75
2023/06/27 08:53:10;;;;;;;10.18;2.00;;;;;;;25.51;48.42;101684.31;4993899;28;20080;-76
2023/06/27 08:55:54;;;;;;;8.57;1.95;;;;;;;25.15;48.75;101690.69;5007512;28;20049;-76
2023/06/27 08:58:26;;;;;;;8.90;2.05;;;;;;;24.99;49.53;101681.59;5023123;28;20048;-76
2023/06/27 09:00:53;;;;;;;11.05;2.75;;;;;;;24.82;51.29;101686.78;4992518;28;20488;-75
2023/06/27 09:03:19;;;;;;;8.13;2.00;;;;;;;24.93;51.39;101685.16;5008246;28;20386;-78
2023/06/27 09:05:47;;;;;;;7.88;2.05;;;;;;;25.06;51.07;101685.72;4994618;28;20030;-76
2023/06/27 09:08:13;;;;;;;5.68;1.75;;;;;;;25.32;50.26;101683.66;4996971;28;20095;-75
2023/06/27 09:10:39;;;;;;;10.27;2.72;;;;;;;26.10;49.58;101691.31;5007298;28;20605;-74
2023/06/27 09:13:06;;;;;;;11.02;2.33;;;;;;;26.33;48.36;101685.84;5010245;28;20536;-76
2023/06/27 09:15:31;;;;;;;10.63;2.20;;;;;;;25.88;49.12;101683.97;5007758;28;20044;-75
2023/06/27 09:17:57;;;;;;;10.13;1.98;;;;;;;25.12;49.29;101683.19;5005828;28;20034;-73
2023/06/27 09:20:23;;;;;;;12.10;2.20;;;;;;;24.85;51.80;101683.66;5011278;28;20041;-78
2023/06/27 09:22:50;;;;;;;7.10;1.90;;;;;;;24.50;52.37;101692.34;4993516;28;20041;-76
2023/06/27 09:25:20;;;;;;;16.23;2.20;;;;;;;24.51;52.77;101693.16;5012118;28;20536;-78
2023/06/27 09:27:46;;;;;;;11.70;1.95;;;;;;;24.73;52.08;101693.44;4996494;28;20071;-77
2023/06/27 09:30:12;;;;;;;7.03;1.88;;;;;;;24.96;52.11;101682.88;5009078;28;20120;-77
2023/06/27 09:33:10;;;;;;;13.65;3.22;;;;;;;25.05;50.59;101684.13;4990078;28;20189;-76
2023/06/27 09:35:44;;;;;;;7.70;2.30;;;;;;;25.25;49.58;101678.47;4938943;28;20057;-74
2023/06/27 09:38:10;;;;;;;11.20;2.10;;;;;;;24.91;49.06;101690.69;5005378;28;20038;-77
2023/06/27 09:40:36;;;;;;;8.00;1.65;;;;;;;24.50;49.72;101684.38;4997464;28;20022;-77
2023/06/27 09:43:04;;;;;;;7.07;2.10;;;;;;;24.60;51.94;101691.81;5013208;28;20021;-78
2023/06/27 09:45:30;;;;;;;6.70;1.83;;;;;;;24.65;49.96;101692.75;5010161;28;20041;-75
2023/06/27 09:47:55;;;;;;;9.95;1.95;;;;;;;24.77;50.93;101692.78;5011200;28;20117;-76
2023/06/27 09:50:30;;;;;;;9.82;2.03;;;;;;;24.76;50.14;101699.09;4993814;28;20066;-75
2023/06/27 09:52:59;;;;;;;8.70;2.17;;;;;;;24.62;50.17;101701.16;5007775;28;20124;-76
2023/06/27 09:55:24;;;;;;;4.45;1.52;;;;;;;24.52;50.65;101697.44;5008771;28;20583;-75
2023/06/27 09:57:51;;;;;;;9.73;1.70;;;;;;;24.49;49.10;101693.41;4994650;28;20129;-77
2023/06/27 10:00:20;;;;;;;9.38;2.42;;;;;;;24.86;50.55;101696.69;5009430;28;20554;-77
2023/06/27 10:02:48;;;;;;;6.18;1.67;;;;;;;25.10;50.24;101696.69;5007320;28;20109;-77
2023/06/27 10:05:15;;;;;;;5.82;2.10;;;;;;;25.10;49.57;101695.88;5007296;28;20148;-75
2023/06/27 10:07:42;;;;;;;7.88;2.10;;;;;;;25.02;47.79;101695.19;5008278;28;20441;-79
2023/06/27 10:10:08;;;;;;;9.50;2.00;;;;;;;24.92;47.72;101694.16;5007702;28;20106;-77
2023/06/27 10:12:33;;;;;;;13.82;1.65;;;;;;;25.02;48.01;101689.88;5007399;28;20396;-78
2023/06/27 10:14:59;;;;;;;14.27;2.10;;;;;;;24.93;49.97;101690.47;5016011;28;20038;-74
2023/06/27 10:17:29;;;;;;;6.38;1.60;;;;;;;24.79;49.60;101696.00;5016380;28;20036;-77
2023/06/27 10:19:57;;;;;;;9.95;2.28;;;;;;;24.68;49.05;101694.94;4985236;28;20144;-78
2023/06/27 10:22:28;;;;;;;7.88;2.08;;;;;;;24.72;50.24;101692.66;5006345;28;22340;-77
2023/06/27 10:24:59;;;;;;;6.32;1.77;;;;;;;24.76;48.80;101691.16;5009397;28;20773;-74
2023/06/27 10:27:25;;;;;;;5.88;1.33;;;;;;;25.01;46.53;101696.22;5008282;28;20044;-77
2023/06/27 10:29:50;;;;;;;6.68;1.73;;;;;;;25.26;45.80;101697.88;5005501;28;20077;-76
2023/06/27 10:32:19;;;;;;;7.00;1.65;;;;;;;25.19;46.82;101684.69;5009483;28;20030;-77
2023/06/27 10:34:45;;;;;;;6.40;1.70;;;;;;;24.90;46.03;101681.09;5004993;28;20053;-74
2023/06/27 10:37:24;;;;;;;6.07;1.55;;;;;;;24.62;48.09;101695.03;5007131;28;20036;-74
2023/06/27 10:39:58;;;;;;;9.57;2.30;;;;;;;24.26;46.95;101702.91;5004290;28;20038;-75
2023/06/27 10:42:23;;;;;;;7.07;2.22;;;;;;;24.13;47.70;101702.25;4992045;28;20034;-75
2023/06/27 10:45:06;;;;;;;7.32;2.13;;;;;;;23.74;48.68;101704.38;5003360;28;20125;-75
2023/06/27 10:47:42;;;;;;;9.05;2.75;;;;;;;23.84;48.78;101704.66;5019715;28;20528;-76
2023/06/27 10:50:10;;;;;;;8.95;2.15;;;;;;;23.78;49.82;101697.59;5004535;28;20042;-75
2023/06/27 10:52:37;;;;;;;6.75;1.70;;;;;;;23.53;49.32;101698.50;5021100;28;20666;-74
2023/06/27 10:55:18;;;;;;;15.13;2.20;;;;;;;23.29;51.11;101695.69;5004380;28;20045;-75
2023/06/27 10:57:49;;;;;;;10.10;2.08;;;;;;;23.20;50.75;101706.75;4992166;28;20061;-76
2023/06/27 11:00:16;;;;;;;12.57;1.85;;;;;;;23.13;52.45;101705.00;5000946;28;20462;-75
2023/06/27 11:02:45;;;;;;;11.63;1.95;;;;;;;23.21;51.81;101708.41;5008264;28;20033;-75
2023/06/27 11:05:16;;;;;;;7.20;2.00;;;;;;;23.24;52.29;101705.28;5008323;28;20596;-75
2023/06/27 11:07:52;;;;;;;9.52;2.20;;;;;;;23.40;52.46;101703.94;5009084;28;20061;-75
2023/06/27 11:10:26;;;;;;;14.00;2.40;;;;;;;23.35;51.99;101699.28;5015655;28;20116;-76
2023/06/27 11:13:15;;;;;;;7.55;1.48;;;;;;;23.50;51.68;101696.28;5014316;28;20107;-76
2023/06/27 11:15:44;;;;;;;9.43;2.35;;;;;;;23.48;49.86;101693.84;5010823;28;20156;-75
2023/06/27 11:18:13;;;;;;;8.20;2.40;;;;;;;23.66;49.50;101692.25;5007319;28;20485;-76
2023/06/27 11:20:40;;;;;;;6.88;1.67;;;;;;;23.89;47.84;101692.38;5011407;28;20627;-76
2023/06/27 11:23:06;;;;;;;3.88;1.40;;;;;;;24.12;47.24;101690.84;5009307;28;20022;-73